Accueil
METAR-TAF:

METAR-TAF

Aéroports :

Marham, Angleterre

latitude: 52-39N, longitude: 000-34E, altitude: 23 m

Observation

Le bulletin a été fait il y a 1 heure et 7 minutes, à 15:50 UTC
Vent 9 kt de nord-est
Température 6°C
Humidité 61%
Pression 1033 hPa
Visibilité 10 km ou plus
Quelques nuages à une hauteur de 2000 ft
Nuages fragmentés à une hauteur de 4000 ft

METAR: EGYM 051550Z 04009KT 9999 FEW020 BKN040 06/M01 Q1033 BLU

Heure: 16:57 (16:57 UTC)

Prévision

Le bulletin a été fait il y a 5 heures et 57 minutes, à 11:00 UTC
Prévision valable du 05 à 12 UTC au 05 à 18 UTC
Vent 8 kt de nord-est
Visibilité 10 km ou plus
Nuages fragmentés à une hauteur de 3500 ft
Probabilité 30% :
Temporairement
du 05 à 12 UTC au 05 à 15 UTC
Nuages épars à une hauteur de 2400 ft

TAF: EGYM 051100Z 0512/0518 04008KT 9999 BKN035 PROB30 TEMPO 0512/0515 SCT024

Observations et prévisions météorologiques de plus de 4000 aéroports (messages METAR et TAF).

Les stations disponibles sont représentées par des disques jaunes et rouges sur la carte.

Passer la souris dessus pour voir le nom de la station.

Cliquer dessus pour voir les observations et prévisions météorologiques.

Pour changer de carte: cliquez sur les boutons verts avec une croix noire pour zoomer, sur le bouton vert avec un tiret pour effectuer un zoom arrière, ou sur les flèches vertes pour les cartes adjacentes.


METAR-TAF: